Terminal Aerodrome Forecast
Issued by NWS

Home | Current Version | Previous Version | Text Only | Print | Product List | Glossary On
Versions: 1 2 3 4 5 6 7 8 9 10 11 12 13 14 15 16 17 18 19 20 21
000
FTUS44 KMAF 230400 AAB
TAFCNM
TAF AMD
KCNM 230402Z 2304/2324 05012KT P6SM SCT040 BKN090
      TEMPO 2304/2308 03015G25KT 5SM -SHRA BKN040
     FM230800 34015G25KT 5SM -RASN OVC020
      TEMPO 2313/2316 3SM -SN BR BKN010 OVC020
     FM231800 33015G25KT P6SM SCT020 SCT090=

USA.gov is the U.S. government's official web portal to all federal, state and local government web resources and services.